KHIO/HIO METAR and TAF weather

Enter ICAO airport designator
Station Type Date Time Source
KHIO METAR 2020/01/18 15:53 UTC NOAA

KHIO 181553Z 13007KT 2SM -RA BR OVC005 06/04 A3013 RMK AO2 SLP205 P0003 T00560044


Station Type Date Time Source
KHIO Decoded METAR 2020/01/18 15:53 UTC NOAA

PORTLAND-HILLSBORO AIRPORT, OR, United States (KHIO) 45-33N 122-57W 68M
Jan 18, 2020 - 10:53 AM EST / 2020.01.18 1553 UTC
Wind: from the SE (130 degrees) at 8 MPH (7 KT):0
Visibility: 2 mile(s):0
Sky conditions: overcast
Weather: light rain; mist
Precipitation last hour: 0.03 inches
Temperature: 42.1 F (5.6 C)
Dew Point: 39.9 F (4.4 C)
Relative Humidity: 91%
Pressure (altimeter): 30.13 in. Hg (1020 hPa)
ob: KHIO 181553Z 13007KT 2SM -RA BR OVC005 06/04 A3013 RMK AO2 SLP205 P0003 T00560044
cycle: 16

Station Type Date Time Source
KHIO TAF 2020/01/18 15:36 UTC NOAA

TAF
AMD KHIO 181433Z 1815/1912 08005KT 5SM -RA BR BKN014 BKN020 OVC025 WS020/18040KT
FM181600 12011KT 6SM -SHRA BKN020 OVC027
FM182100 16006KT P6SM VCSH SCT015 OVC025
FM190100 VRB03KT P6SM BKN020 BKN030
FM190700 00000KT 4SM BR OVC020

Example: see airport list